Time;durP1;ratioP1;P1;durP2;ratioP2;P2;SDS_P1;SDS_P2;PMS_P1;PMS_P2;Temp;Humidity;BMP_temperature;BMP_pressure;BME280_temperature;BME280_humidity;BME280_pressure;Samples;Min_cycle;Max_cycle;Signal;HPM_P1;HPM_P2
2022/02/06 00:01:12;;;;;;;5.50;1.30;;;8.20;99.90;;;;;;6232522;23;20235;-93
2022/02/06 00:03:45;;;;;;;3.63;1.53;;;8.30;99.90;;;;;;6236510;23;20210;-92
2022/02/06 00:06:17;;;;;;;2.40;1.20;;;8.30;99.90;;;;;;6233573;23;20842;-93
2022/02/06 00:08:50;;;;;;;3.43;1.53;;;8.30;99.90;;;;;;6234595;23;20230;-93
2022/02/06 00:11:22;;;;;;;3.80;1.40;;;8.30;99.90;;;;;;6233376;23;20176;-93
2022/02/06 00:13:53;;;;;;;2.93;1.60;;;8.20;99.90;;;;;;6209635;23;20183;-92
2022/02/06 00:16:25;;;;;;;5.50;1.40;;;8.20;99.90;;;;;;6227771;23;20207;-93
2022/02/06 00:18:58;;;;;;;2.07;1.27;;;8.20;99.90;;;;;;6231123;23;20164;-91
2022/02/06 00:21:30;;;;;;;1.37;0.90;;;8.10;99.90;;;;;;6224162;23;20200;-93
2022/02/06 00:24:04;;;;;;;4.57;1.30;;;8.10;99.90;;;;;;6229444;23;20183;-94
2022/02/06 00:26:40;;;;;;;4.23;1.33;;;8.00;99.90;;;;;;6230391;22;20176;-95
2022/02/06 00:29:22;;;;;;;2.93;1.20;;;8.00;99.90;;;;;;6213306;23;20175;-92
2022/02/06 00:31:58;;;;;;;3.13;1.50;;;8.00;99.90;;;;;;6233517;23;20191;-93
2022/02/06 00:42:37;;;;;;;2.90;1.50;;;7.80;99.90;;;;;;6209512;23;20184;-91
2022/02/06 00:45:10;;;;;;;2.20;1.63;;;7.80;99.90;;;;;;6207859;23;20269;-92
2022/02/06 00:47:44;;;;;;;5.10;1.67;;;7.70;99.90;;;;;;6205108;23;20180;-92
2022/02/06 00:50:17;;;;;;;3.90;1.90;;;7.70;99.90;;;;;;6205316;23;20223;-93
2022/02/06 00:52:53;;;;;;;5.03;1.90;;;7.60;99.90;;;;;;6205379;23;20173;-93
2022/02/06 00:55:27;;;;;;;3.27;1.50;;;7.60;99.90;;;;;;6179788;23;20180;-93
2022/02/06 00:57:58;;;;;;;2.83;1.47;;;7.60;99.90;;;;;;6202998;23;20181;-93
2022/02/06 01:00:30;;;;;;;4.13;1.60;;;7.50;99.90;;;;;;6202027;23;20239;-92
2022/02/06 01:03:02;;;;;;;4.67;1.80;;;7.50;99.90;;;;;;6180116;23;20181;-92
2022/02/06 01:05:58;;;;;;;3.10;1.70;;;7.40;99.90;;;;;;6222008;22;20239;-93
2022/02/06 01:08:32;;;;;;;6.80;2.00;;;7.30;99.90;;;;;;6209862;23;20660;-93
2022/02/06 01:11:08;;;;;;;3.83;1.57;;;7.20;99.90;;;;;;6234803;23;20211;-93
2022/02/06 01:13:50;;;;;;;4.70;1.90;;;7.10;99.90;;;;;;6221128;23;20187;-92
2022/02/06 01:16:26;;;;;;;3.50;1.70;;;7.00;99.90;;;;;;6231633;23;20188;-92
2022/02/06 01:19:00;;;;;;;2.27;1.70;;;6.90;99.90;;;;;;6229940;23;20203;-92
2022/02/06 01:24:23;;;;;;;2.70;2.10;;;6.80;99.90;;;;;;6232137;23;20180;-92
2022/02/06 01:26:58;;;;;;;3.63;1.83;;;6.70;99.90;;;;;;6232731;23;20189;-92
2022/02/06 01:29:39;;;;;;;4.13;2.00;;;6.70;99.90;;;;;;6211195;23;20186;-92
2022/02/06 01:32:15;;;;;;;4.50;2.30;;;6.60;99.90;;;;;;6241262;22;20196;-93
2022/02/06 01:34:51;;;;;;;4.20;2.10;;;6.60;99.90;;;;;;6237627;23;20182;-93
2022/02/06 01:37:30;;;;;;;3.83;2.20;;;6.50;99.90;;;;;;6211035;23;20673;-94
2022/02/06 01:40:12;;;;;;;4.67;2.60;;;6.40;99.90;;;;;;6231111;23;20156;-92
2022/02/06 01:42:47;;;;;;;5.03;2.77;;;6.40;99.90;;;;;;6233370;23;20214;-93
2022/02/06 01:45:38;;;;;;;3.17;2.20;;;6.40;99.90;;;;;;6235589;22;20163;-93
2022/02/06 02:02:37;;;;;;;6.90;3.50;;;6.20;99.90;;;;;;6203695;22;20215;-93
2022/02/06 02:13:57;;;;;;;4.07;2.60;;;6.00;99.90;;;;;;6212894;22;20276;-91
2022/02/06 02:31:07;;;;;;;6.40;3.60;;;5.80;99.90;;;;;;6223458;22;20228;-94
2022/02/06 02:47:19;;;;;;;8.80;3.97;;;5.50;99.90;;;;;;6263813;22;20186;-93
2022/02/06 02:49:53;;;;;;;6.83;3.53;;;5.50;99.90;;;;;;6266228;23;20176;-92
2022/02/06 02:52:52;;;;;;;6.70;3.93;;;5.40;99.90;;;;;;6264160;23;20178;-92
2022/02/06 02:58:23;;;;;;;9.43;4.50;;;5.40;99.90;;;;;;6253627;23;20182;-93
2022/02/06 03:01:03;;;;;;;7.57;5.00;;;5.30;99.90;;;;;;6253512;23;20256;-92
2022/02/06 03:03:37;;;;;;;7.00;5.20;;;5.30;99.90;;;;;;6267560;23;20191;-93
2022/02/06 03:06:10;;;;;;;8.13;4.80;;;5.30;99.90;;;;;;6267022;23;20227;-94
2022/02/06 03:08:44;;;;;;;10.70;4.30;;;5.20;99.90;;;;;;6267021;23;20186;-92
2022/02/06 03:11:17;;;;;;;7.17;4.40;;;5.20;99.90;;;;;;6270171;22;20198;-93
2022/02/06 03:13:57;;;;;;;6.93;3.97;;;5.20;99.90;;;;;;6272726;23;20176;-93
2022/02/06 03:16:35;;;;;;;9.13;4.50;;;5.10;99.90;;;;;;6242685;23;20164;-92
2022/02/06 03:19:12;;;;;;;6.13;4.30;;;5.10;99.90;;;;;;6272581;23;20195;-92
2022/02/06 03:21:45;;;;;;;9.90;6.97;;;5.10;99.90;;;;;;6268040;23;20238;-91
2022/02/06 03:24:24;;;;;;;14.67;8.90;;;5.10;99.90;;;;;;6268315;23;20171;-92
2022/02/06 03:26:58;;;;;;;9.63;5.93;;;5.00;99.90;;;;;;6268719;22;20270;-93
2022/02/06 03:29:29;;;;;;;5.67;4.53;;;5.00;99.90;;;;;;6270298;23;20159;-92
2022/02/06 03:32:01;;;;;;;7.70;4.20;;;5.00;99.90;;;;;;6272224;22;20187;-92
2022/02/06 03:37:15;;;;;;;7.13;3.90;;;5.00;99.90;;;;;;6240060;22;20199;-92
2022/02/06 03:39:52;;;;;;;5.83;4.23;;;5.00;99.90;;;;;;6240609;23;20171;-93
2022/02/06 03:42:33;;;;;;;5.73;3.87;;;4.90;99.90;;;;;;6240589;23;20208;-92
2022/02/06 03:45:08;;;;;;;8.10;4.33;;;4.90;99.90;;;;;;6240134;23;20164;-92
2022/02/06 03:47:48;;;;;;;9.60;4.60;;;4.90;99.90;;;;;;6238650;23;20179;-92
2022/02/06 03:52:55;;;;;;;8.50;4.97;;;4.90;99.90;;;;;;6236765;22;20259;-93
2022/02/06 03:55:29;;;;;;;7.73;5.27;;;4.90;99.90;;;;;;6217078;23;20176;-94
2022/02/06 03:58:04;;;;;;;7.97;4.93;;;4.90;99.90;;;;;;6236681;22;20168;-93
2022/02/06 04:00:36;;;;;;;7.30;4.80;;;4.80;99.90;;;;;;6235307;22;20195;-93
2022/02/06 04:03:08;;;;;;;8.03;4.27;;;4.80;99.90;;;;;;6227742;23;20222;-93
2022/02/06 04:05:43;;;;;;;6.80;3.63;;;4.80;99.90;;;;;;6232386;23;20183;-93
2022/02/06 04:08:17;;;;;;;7.60;3.90;;;4.80;99.90;;;;;;6226390;23;20490;-94
2022/02/06 04:10:51;;;;;;;6.50;3.93;;;4.80;99.90;;;;;;6229343;23;20165;-92
2022/02/06 04:13:26;;;;;;;13.00;3.67;;;4.80;99.90;;;;;;6237872;23;20183;-93
2022/02/06 04:16:00;;;;;;;10.03;4.23;;;4.80;99.90;;;;;;6237799;23;20168;-92
2022/02/06 04:18:40;;;;;;;5.63;3.60;;;4.70;99.90;;;;;;6233743;23;20177;-93
2022/02/06 04:21:12;;;;;;;9.10;4.00;;;4.70;99.90;;;;;;6204989;23;20246;-92
2022/02/06 04:23:43;;;;;;;6.47;3.90;;;4.70;99.90;;;;;;6235093;23;20227;-93
2022/02/06 04:26:17;;;;;;;7.93;4.33;;;4.70;99.90;;;;;;6229470;23;20181;-92
2022/02/06 04:28:49;;;;;;;8.17;4.30;;;4.60;99.90;;;;;;6233347;23;20172;-93
2022/02/06 04:31:20;;;;;;;7.30;4.10;;;4.60;99.90;;;;;;6241998;22;20279;-93
2022/02/06 04:33:53;;;;;;;10.67;5.10;;;4.70;99.90;;;;;;6242407;22;20164;-92
2022/02/06 04:36:28;;;;;;;7.77;4.43;;;4.70;99.90;;;;;;6215928;22;20164;-92
2022/02/06 04:39:10;;;;;;;8.93;4.83;;;4.70;99.90;;;;;;6238194;22;20168;-90
2022/02/06 04:42:02;;;;;;;9.63;5.60;;;4.70;99.90;;;;;;6235815;22;20274;-92
2022/02/06 04:53:48;;;;;;;9.80;6.03;;;4.60;99.90;;;;;;6080800;23;20183;-93
2022/02/06 05:27:31;;;;;;;10.20;6.53;;;4.50;99.90;;;;;;6163602;23;20174;-93
2022/02/06 05:30:04;;;;;;;11.23;6.67;;;4.40;99.90;;;;;;6161432;23;20208;-92
2022/02/06 05:32:38;;;;;;;11.07;6.97;;;4.40;99.90;;;;;;6163719;23;20181;-93
2022/02/06 05:35:15;;;;;;;10.10;6.57;;;4.40;99.90;;;;;;6165290;23;20170;-90
2022/02/06 05:37:46;;;;;;;10.80;6.87;;;4.30;99.90;;;;;;6163371;23;20185;-93
2022/02/06 05:40:18;;;;;;;13.77;6.60;;;4.30;99.90;;;;;;6165412;23;20178;-93
2022/02/06 05:42:48;;;;;;;11.23;6.40;;;4.30;99.90;;;;;;6165360;23;20190;-92
2022/02/06 05:45:20;;;;;;;8.97;5.97;;;4.30;99.90;;;;;;6163339;23;20177;-91
2022/02/06 05:47:51;;;;;;;8.67;6.33;;;4.30;99.90;;;;;;6162706;23;20188;-92
2022/02/06 05:50:27;;;;;;;11.73;6.67;;;4.20;99.90;;;;;;6162205;23;20252;-92
2022/02/06 05:52:59;;;;;;;8.60;6.33;;;4.30;99.90;;;;;;6161204;23;20224;-92
2022/02/06 05:55:33;;;;;;;8.57;6.37;;;4.20;99.90;;;;;;6168848;23;20180;-92
2022/02/06 05:58:05;;;;;;;10.00;6.70;;;4.20;99.90;;;;;;6171729;23;20173;-92
2022/02/06 06:00:36;;;;;;;12.77;7.93;;;4.20;99.90;;;;;;6166201;23;20185;-93
2022/02/06 06:03:08;;;;;;;12.23;7.27;;;4.20;99.90;;;;;;6169700;23;20218;-93
2022/02/06 06:05:40;;;;;;;12.70;8.13;;;4.20;99.90;;;;;;6177588;23;20217;-93
2022/02/06 06:08:12;;;;;;;11.20;7.00;;;4.20;99.90;;;;;;6216904;22;20216;-93
2022/02/06 06:10:43;;;;;;;12.80;6.47;;;4.20;99.90;;;;;;6231400;22;20211;-92
2022/02/06 06:13:17;;;;;;;9.27;5.83;;;4.10;99.90;;;;;;6229875;23;20192;-93
2022/02/06 06:15:48;;;;;;;10.33;6.87;;;4.10;99.90;;;;;;6237266;23;20207;-94
2022/02/06 06:18:18;;;;;;;13.40;6.47;;;4.10;99.90;;;;;;6230610;23;20172;-93
2022/02/06 06:20:53;;;;;;;9.57;6.33;;;4.10;99.90;;;;;;6234597;23;20168;-94
2022/02/06 06:23:24;;;;;;;8.67;5.90;;;4.10;99.90;;;;;;6236935;22;20208;-91
2022/02/06 06:25:55;;;;;;;9.90;6.13;;;4.00;99.90;;;;;;6240118;23;20165;-92
2022/02/06 06:28:27;;;;;;;10.87;5.63;;;4.00;99.90;;;;;;6199281;22;20208;-93
2022/02/06 06:33:32;;;;;;;8.90;6.37;;;4.00;99.90;;;;;;6213440;23;20224;-89
2022/02/06 06:36:06;;;;;;;7.20;5.90;;;3.90;99.90;;;;;;6188013;23;20168;-91
2022/02/06 06:38:38;;;;;;;12.67;5.83;;;3.90;99.90;;;;;;6212644;23;20220;-93
2022/02/06 06:41:10;;;;;;;13.23;6.07;;;3.90;99.90;;;;;;6210596;22;20559;-89
2022/02/06 06:43:41;;;;;;;9.30;6.13;;;3.90;99.90;;;;;;6273704;22;20218;-92
2022/02/06 06:46:18;;;;;;;8.17;5.30;;;3.80;99.90;;;;;;6263183;22;20223;-89
2022/02/06 06:48:51;;;;;;;7.97;5.13;;;3.80;99.90;;;;;;6273526;22;20168;-92
2022/02/06 06:51:24;;;;;;;13.70;5.47;;;3.70;99.90;;;;;;6273100;22;20186;-92
2022/02/06 06:53:56;;;;;;;7.60;4.97;;;3.70;99.90;;;;;;6245439;22;20159;-92
2022/02/06 06:56:37;;;;;;;8.33;5.87;;;3.70;99.90;;;;;;6237384;22;20211;-94
2022/02/06 06:59:26;;;;;;;9.37;5.50;;;3.70;99.90;;;;;;6264729;23;20188;-93
2022/02/06 07:02:16;;;;;;;9.43;5.37;;;3.60;99.90;;;;;;6262001;23;20168;-93
2022/02/06 07:04:48;;;;;;;10.40;5.30;;;3.60;99.90;;;;;;6260180;23;20204;-91
2022/02/06 07:07:21;;;;;;;7.17;5.00;;;3.60;99.90;;;;;;6232460;23;20168;-93
2022/02/06 07:09:52;;;;;;;10.90;5.17;;;3.60;99.90;;;;;;6263829;23;20184;-93
2022/02/06 07:12:24;;;;;;;11.20;5.70;;;3.50;99.90;;;;;;6234250;23;20207;-93
2022/02/06 07:14:55;;;;;;;11.60;5.50;;;3.50;99.90;;;;;;6261191;23;20191;-93
2022/02/06 07:17:26;;;;;;;11.97;5.37;;;3.50;99.90;;;;;;6260431;23;20180;-92
2022/02/06 07:19:57;;;;;;;9.67;5.37;;;3.40;99.90;;;;;;6256184;23;20168;-93
2022/02/06 07:22:35;;;;;;;9.90;5.60;;;3.40;99.90;;;;;;6254653;23;20203;-94
2022/02/06 07:25:07;;;;;;;14.73;5.90;;;3.40;99.90;;;;;;6255832;23;20192;-92
2022/02/06 07:27:42;;;;;;;12.03;6.07;;;3.40;99.90;;;;;;6255033;23;20176;-92
2022/02/06 07:30:15;;;;;;;12.10;6.27;;;3.40;99.90;;;;;;6255585;23;20167;-93
2022/02/06 07:32:47;;;;;;;11.80;5.57;;;3.50;99.90;;;;;;6257568;23;20171;-90
2022/02/06 07:35:18;;;;;;;10.53;6.53;;;3.50;99.90;;;;;;6267197;22;20179;-89
2022/02/06 07:37:55;;;;;;;11.17;5.97;;;3.40;99.90;;;;;;6255946;23;20182;-92
2022/02/06 07:40:26;;;;;;;9.57;6.17;;;3.40;99.90;;;;;;6254041;23;20222;-92
2022/02/06 07:42:57;;;;;;;11.00;5.93;;;3.30;99.90;;;;;;6253672;23;20168;-91
2022/02/06 07:45:28;;;;;;;9.40;6.13;;;3.30;99.90;;;;;;6254121;23;20202;-92
2022/02/06 07:47:59;;;;;;;13.07;6.23;;;3.30;99.90;;;;;;6253586;23;20183;-93
2022/02/06 07:50:32;;;;;;;11.87;6.40;;;3.30;99.90;;;;;;6262658;23;20217;-92
2022/02/06 07:53:05;;;;;;;10.47;6.07;;;3.30;99.90;;;;;;6260129;23;20179;-92
2022/02/06 07:55:36;;;;;;;11.40;6.10;;;3.20;99.90;;;;;;6259974;23;20194;-91
2022/02/06 07:58:07;;;;;;;9.37;6.33;;;3.20;99.90;;;;;;6257300;23;20220;-91
2022/02/06 08:00:39;;;;;;;13.10;7.33;;;3.20;99.90;;;;;;6258913;23;20175;-93
2022/02/06 08:03:10;;;;;;;11.87;6.87;;;3.20;99.90;;;;;;6258054;23;20187;-93
2022/02/06 08:05:41;;;;;;;11.60;7.20;;;3.10;99.90;;;;;;6255238;23;20168;-93
2022/02/06 08:08:15;;;;;;;15.17;7.83;;;3.10;99.90;;;;;;6253468;23;20195;-93
2022/02/06 08:10:46;;;;;;;15.37;8.70;;;3.10;99.90;;;;;;6253812;23;20175;-94
2022/02/06 08:13:24;;;;;;;13.70;7.67;;;3.20;99.90;;;;;;6254135;23;20168;-93
2022/02/06 08:16:00;;;;;;;14.30;8.63;;;3.20;99.90;;;;;;6252927;23;20184;-92
2022/02/06 08:18:30;;;;;;;15.23;8.67;;;3.10;99.90;;;;;;6251780;23;20175;-92
2022/02/06 08:21:02;;;;;;;21.80;8.80;;;3.10;99.90;;;;;;6252690;23;20199;-94
2022/02/06 08:23:48;;;;;;;16.70;8.47;;;3.10;99.90;;;;;;6259535;23;20279;-92
2022/02/06 08:26:18;;;;;;;20.13;8.77;;;3.10;99.90;;;;;;6252147;23;20183;-93
2022/02/06 08:28:51;;;;;;;34.13;8.60;;;3.10;99.90;;;;;;6254754;23;20207;-93
2022/02/06 08:31:26;;;;;;;33.50;9.07;;;3.00;99.90;;;;;;6235873;23;20167;-92
2022/02/06 08:33:59;;;;;;;44.27;9.97;;;3.00;99.90;;;;;;6263860;23;20179;-92
2022/02/06 08:36:33;;;;;;;55.90;9.37;;;3.00;99.90;;;;;;6252625;23;20164;-93
2022/02/06 08:39:09;;;;;;;64.90;8.73;;;3.00;99.90;;;;;;6254581;23;20219;-93
2022/02/06 08:41:41;;;;;;;37.17;7.30;;;3.00;99.90;;;;;;6255079;23;20240;-93
2022/02/06 08:44:12;;;;;;;14.10;6.67;;;3.00;99.90;;;;;;6255196;23;20207;-93
2022/02/06 08:46:43;;;;;;;12.53;6.63;;;2.90;99.90;;;;;;6256266;23;20179;-91
2022/02/06 08:49:14;;;;;;;11.60;5.97;;;2.80;99.90;;;;;;6258754;23;20174;-93
2022/02/06 08:51:48;;;;;;;7.93;5.33;;;2.70;99.90;;;;;;6259855;22;20176;-92
2022/02/06 08:54:25;;;;;;;7.30;5.47;;;2.70;99.90;;;;;;6271336;22;20176;-93
2022/02/06 08:57:20;;;;;;;7.80;5.43;;;2.70;99.90;;;;;;6273102;22;20183;-89
2022/02/06 08:59:52;;;;;;;8.67;5.20;;;2.60;99.90;;;;;;6273679;22;20179;-93
2022/02/06 09:02:25;;;;;;;8.20;5.23;;;2.60;99.90;;;;;;6248409;22;20179;-92
2022/02/06 09:04:58;;;;;;;7.50;5.20;;;2.60;99.90;;;;;;6274531;22;20198;-93
2022/02/06 09:07:28;;;;;;;11.23;5.13;;;2.50;99.90;;;;;;6268804;22;20168;-94
2022/02/06 09:10:02;;;;;;;8.00;5.03;;;2.50;99.90;;;;;;6263387;23;20180;-94
2022/02/06 09:12:35;;;;;;;8.13;5.40;;;2.50;99.90;;;;;;6257251;23;20168;-93
2022/02/06 09:15:07;;;;;;;6.27;4.67;;;2.40;99.90;;;;;;6267985;22;20179;-93
2022/02/06 09:17:38;;;;;;;6.57;4.87;;;2.40;99.90;;;;;;6273591;22;20194;-93
2022/02/06 09:20:10;;;;;;;6.40;5.37;;;2.30;99.90;;;;;;6272869;22;20199;-92
2022/02/06 09:22:43;;;;;;;10.30;5.83;;;2.30;99.90;;;;;;6272582;22;20166;-93
2022/02/06 09:25:17;;;;;;;8.97;5.63;;;2.40;99.90;;;;;;6270146;23;20211;-95
2022/02/06 09:27:48;;;;;;;9.17;5.27;;;2.30;99.90;;;;;;6262660;23;20334;-93
2022/02/06 09:30:25;;;;;;;71.17;7.83;;;2.30;99.90;;;;;;6236788;23;20168;-93
2022/02/06 09:35:27;;;;;;;18.43;6.03;;;2.30;99.90;;;;;;6258564;23;20293;-93
2022/02/06 09:37:58;;;;;;;20.90;6.10;;;2.40;99.90;;;;;;6253083;23;20199;-93
2022/02/06 09:40:37;;;;;;;20.70;6.87;;;2.40;99.90;;;;;;6258297;23;20180;-93
2022/02/06 09:43:08;;;;;;;9.30;5.77;;;2.40;99.90;;;;;;6230282;23;20235;-92
2022/02/06 09:45:42;;;;;;;10.03;6.30;;;2.50;99.90;;;;;;6255621;23;20219;-93
2022/02/06 09:48:15;;;;;;;9.87;5.77;;;2.50;99.90;;;;;;6254645;23;20191;-93
2022/02/06 09:50:47;;;;;;;9.20;5.83;;;2.60;99.90;;;;;;6253804;23;20180;-93
2022/02/06 09:53:18;;;;;;;12.27;5.80;;;2.60;99.90;;;;;;6253420;23;20209;-93
2022/02/06 09:55:51;;;;;;;7.03;5.50;;;2.60;99.90;;;;;;6262099;23;20175;-93
2022/02/06 09:59:17;;;;;;;6.70;5.33;;;2.70;99.90;;;;;;6254304;23;20241;-92
2022/02/06 10:01:51;;;;;;;8.40;4.80;;;2.80;99.90;;;;;;6234846;23;20665;-93
2022/02/06 10:04:24;;;;;;;7.93;5.17;;;2.80;99.90;;;;;;6253167;23;20220;-92
2022/02/06 10:07:05;;;;;;;8.07;5.33;;;2.90;99.90;;;;;;6254135;23;20180;-93
2022/02/06 10:09:42;;;;;;;7.00;5.17;;;2.90;99.90;;;;;;6254873;23;20167;-93
2022/02/06 10:12:18;;;;;;;8.17;4.83;;;3.00;99.90;;;;;;6227417;22;20254;-91
2022/02/06 10:14:51;;;;;;;9.10;5.07;;;3.00;99.90;;;;;;6252563;23;20556;-93
2022/02/06 10:17:25;;;;;;;7.30;4.63;;;3.00;99.90;;;;;;6253844;23;20175;-92
2022/02/06 10:19:58;;;;;;;9.90;5.47;;;3.00;99.90;;;;;;6255238;23;20207;-93
2022/02/06 10:22:38;;;;;;;5.97;4.93;;;3.00;99.90;;;;;;6225011;23;20183;-94
2022/02/06 10:25:10;;;;;;;7.13;5.30;;;3.00;99.90;;;;;;6252346;23;20191;-93
2022/02/06 10:28:00;;;;;;;7.00;4.90;;;3.00;99.90;;;;;;6228821;23;20214;-93
2022/02/06 10:30:38;;;;;;;6.83;5.23;;;2.90;99.90;;;;;;6225751;23;20607;-94
2022/02/06 10:33:12;;;;;;;8.83;6.93;;;2.90;99.90;;;;;;6252226;23;20215;-93
2022/02/06 10:35:43;;;;;;;10.07;7.83;;;2.90;99.90;;;;;;6251844;23;20273;-93
2022/02/06 10:38:20;;;;;;;9.27;6.70;;;2.90;99.90;;;;;;6225311;23;20195;-93
2022/02/06 10:41:06;;;;;;;7.60;6.27;;;2.90;99.90;;;;;;6251679;23;20267;-93
2022/02/06 10:43:42;;;;;;;7.97;5.40;;;2.90;99.90;;;;;;6251611;23;20255;-94
2022/02/06 10:46:14;;;;;;;6.40;5.07;;;2.80;99.90;;;;;;6251534;23;20556;-92
2022/02/06 10:48:48;;;;;;;9.50;5.40;;;2.80;99.90;;;;;;6251272;23;20203;-92
2022/02/06 10:51:42;;;;;;;5.40;3.90;;;2.70;99.90;;;;;;6251629;23;20179;-93
2022/02/06 10:54:16;;;;;;;8.90;4.80;;;2.60;99.90;;;;;;6259608;23;20179;-92
2022/02/06 10:57:05;;;;;;;5.70;4.20;;;2.50;99.90;;;;;;6249680;23;20188;-92
2022/02/06 10:59:47;;;;;;;10.27;5.27;;;2.40;99.90;;;;;;6251804;23;20195;-92
2022/02/06 11:02:22;;;;;;;31.63;6.00;;;2.40;99.90;;;;;;6251880;23;20200;-93
2022/02/06 11:05:04;;;;;;;38.87;4.97;;;2.30;99.90;;;;;;6251601;23;20237;-93
2022/02/06 11:07:36;;;;;;;70.27;5.90;;;2.20;99.90;;;;;;6250797;23;20622;-94
2022/02/06 11:10:14;;;;;;;141.87;7.27;;;2.20;99.90;;;;;;6252059;23;20191;-93
2022/02/06 11:12:50;;;;;;;115.47;8.87;;;2.00;99.90;;;;;;6251475;23;20207;-94
2022/02/06 11:15:29;;;;;;;34.63;4.57;;;1.90;99.90;;;;;;6251494;23;20168;-94
2022/02/06 11:18:15;;;;;;;32.43;4.70;;;1.90;99.90;;;;;;6250901;23;20176;-94
2022/02/06 11:20:57;;;;;;;7.53;3.43;;;1.90;99.90;;;;;;6251015;23;20183;-94
2022/02/06 11:23:48;;;;;;;7.87;3.87;;;1.80;99.90;;;;;;6252349;23;20164;-94
2022/02/06 11:26:23;;;;;;;5.30;3.47;;;1.70;99.90;;;;;;6251817;23;20196;-93
2022/02/06 11:28:56;;;;;;;4.03;3.13;;;1.70;99.90;;;;;;6252389;23;20175;-94
2022/02/06 11:31:29;;;;;;;3.30;2.93;;;1.70;99.90;;;;;;6252584;23;20210;-93
2022/02/06 11:34:00;;;;;;;4.03;2.50;;;1.80;99.90;;;;;;6257836;23;20163;-94
2022/02/06 11:45:32;;;;;;;3.33;2.40;;;2.10;99.90;;;;;;6246046;22;20191;-93
2022/02/06 11:48:08;;;;;;;3.97;2.93;;;2.20;99.90;;;;;;6255323;23;20198;-93
2022/02/06 11:50:47;;;;;;;3.83;2.87;;;2.20;99.90;;;;;;6257513;23;20181;-92
2022/02/06 11:53:28;;;;;;;3.73;2.90;;;2.20;99.90;;;;;;6252978;23;20286;-93
2022/02/06 11:56:00;;;;;;;4.53;3.10;;;2.30;99.90;;;;;;6252969;23;20214;-93
2022/02/06 11:58:35;;;;;;;4.67;3.10;;;2.40;99.90;;;;;;6251656;23;20188;-93
2022/02/06 12:01:24;;;;;;;4.87;3.90;;;2.40;99.90;;;;;;6251435;23;20191;-94
2022/02/06 12:04:02;;;;;;;5.30;4.80;;;2.50;99.90;;;;;;6255763;23;20176;-93
2022/02/06 12:06:53;;;;;;;5.17;4.60;;;2.50;99.90;;;;;;6252225;23;20187;-94
2022/02/06 12:09:28;;;;;;;5.50;4.97;;;2.60;99.90;;;;;;6253583;22;20614;-93
2022/02/06 12:12:16;;;;;;;6.23;4.40;;;2.60;99.90;;;;;;6250226;23;20171;-93
2022/02/06 12:14:53;;;;;;;4.53;4.13;;;2.60;99.90;;;;;;6250997;23;20172;-93
2022/02/06 12:17:36;;;;;;;7.07;5.00;;;2.60;99.90;;;;;;6249634;23;20175;-93
2022/02/06 12:20:12;;;;;;;3.90;3.50;;;2.70;99.90;;;;;;6251516;23;20351;-93
2022/02/06 12:22:45;;;;;;;4.47;4.07;;;2.70;99.90;;;;;;6254477;23;20163;-95
2022/02/06 12:25:27;;;;;;;4.73;4.20;;;2.60;99.90;;;;;;6251502;23;20495;-94
2022/02/06 12:28:27;;;;;;;3.67;3.20;;;2.60;99.90;;;;;;6250794;23;20179;-94
2022/02/06 12:31:26;;;;;;;2.83;2.63;;;2.60;99.90;;;;;;6251087;23;20216;-93
2022/02/06 12:34:10;;;;;;;2.67;2.30;;;2.70;99.90;;;;;;6254608;23;20178;-93
2022/02/06 12:37:07;;;;;;;3.97;3.20;;;2.80;99.90;;;;;;6251635;23;20175;-93
2022/02/06 12:39:40;;;;;;;2.50;2.30;;;2.90;99.90;;;;;;6250492;23;20637;-94
2022/02/06 12:42:16;;;;;;;3.30;2.90;;;2.90;99.90;;;;;;6255514;23;20175;-94
2022/02/06 12:44:48;;;;;;;2.90;2.40;;;2.90;99.90;;;;;;6252550;23;20195;-94
2022/02/06 12:47:20;;;;;;;3.40;2.87;;;2.90;99.90;;;;;;6251453;23;20204;-93
2022/02/06 12:49:51;;;;;;;3.20;2.43;;;2.90;99.90;;;;;;6249999;23;20176;-93
2022/02/06 12:52:25;;;;;;;2.93;2.40;;;3.00;99.90;;;;;;6250096;23;20176;-93
2022/02/06 12:54:56;;;;;;;3.17;2.10;;;3.00;99.90;;;;;;6250810;23;20163;-93
2022/02/06 12:57:28;;;;;;;2.47;2.10;;;2.80;99.90;;;;;;6230760;23;20262;-92
2022/02/06 13:00:00;;;;;;;3.27;2.13;;;2.80;99.90;;;;;;6250969;22;20199;-92
2022/02/06 13:02:35;;;;;;;2.63;2.37;;;2.80;99.90;;;;;;6254213;22;20168;-93
2022/02/06 13:05:12;;;;;;;2.27;1.93;;;2.80;99.90;;;;;;6250467;22;20175;-93
2022/02/06 13:07:48;;;;;;;2.93;2.00;;;2.90;99.90;;;;;;6249600;22;20203;-92
2022/02/06 13:10:20;;;;;;;2.20;1.90;;;3.00;99.90;;;;;;6252484;22;20469;-91
2022/02/06 13:12:55;;;;;;;3.90;2.53;;;3.00;99.90;;;;;;6259614;22;20168;-92
2022/02/06 13:18:42;;;;;;;2.90;2.53;;;3.00;99.90;;;;;;6255855;23;20182;-93
2022/02/06 13:21:21;;;;;;;4.60;2.60;;;2.90;99.90;;;;;;6257188;22;20194;-93
2022/02/06 13:26:58;;;;;;;4.07;3.27;;;2.80;99.90;;;;;;6258135;22;20584;-94
2022/02/06 13:29:40;;;;;;;5.63;3.13;;;2.80;99.90;;;;;;6254737;22;20179;-93
2022/02/06 13:32:29;;;;;;;5.00;3.80;;;2.90;99.90;;;;;;6256779;22;20184;-93
2022/02/06 13:35:14;;;;;;;4.10;3.40;;;2.90;99.90;;;;;;6255677;22;20645;-93
2022/02/06 13:37:55;;;;;;;4.13;3.20;;;3.00;99.90;;;;;;6259937;22;20179;-92
2022/02/06 13:40:31;;;;;;;5.03;3.73;;;3.00;99.90;;;;;;6271493;22;20194;-92
2022/02/06 13:43:05;;;;;;;5.40;3.87;;;3.00;99.90;;;;;;6269530;22;20174;-95
2022/02/06 13:45:38;;;;;;;4.90;4.10;;;3.10;99.90;;;;;;6256107;22;20536;-93
2022/02/06 13:48:11;;;;;;;6.03;4.40;;;3.10;99.90;;;;;;6256078;22;20230;-94
2022/02/06 13:50:48;;;;;;;4.87;4.33;;;3.10;99.90;;;;;;6254854;22;20172;-93
2022/02/06 13:53:22;;;;;;;4.50;3.70;;;3.20;99.90;;;;;;6264181;22;20164;-93
2022/02/06 13:56:03;;;;;;;5.93;4.20;;;3.30;99.90;;;;;;6272083;22;20179;-93
2022/02/06 13:58:35;;;;;;;4.83;4.00;;;3.30;99.90;;;;;;6273115;22;20297;-92
2022/02/06 14:01:06;;;;;;;5.47;3.97;;;3.20;99.90;;;;;;6246665;23;20167;-92
2022/02/06 14:03:47;;;;;;;9.33;4.40;;;3.20;99.90;;;;;;6267161;22;20175;-91
2022/02/06 14:06:24;;;;;;;8.60;4.63;;;3.20;99.90;;;;;;6265390;23;20175;-92
2022/02/06 14:09:22;;;;;;;4.90;3.90;;;3.20;99.90;;;;;;6257410;23;20210;-93
2022/02/06 14:12:04;;;;;;;8.90;4.70;;;3.20;99.90;;;;;;6253982;23;20167;-93
2022/02/06 14:14:36;;;;;;;18.27;5.50;;;3.20;99.90;;;;;;6253515;23;20187;-92
2022/02/06 14:17:30;;;;;;;165.33;11.10;;;3.20;99.90;;;;;;6252226;23;20182;-93
2022/02/06 14:20:09;;;;;;;112.53;9.80;;;3.20;99.90;;;;;;6253251;23;20198;-92
2022/02/06 14:22:45;;;;;;;287.43;16.00;;;3.20;99.90;;;;;;6253610;23;20202;-93
2022/02/06 14:25:27;;;;;;;129.37;9.60;;;3.20;99.90;;;;;;6256522;23;20168;-92
2022/02/06 14:28:47;;;;;;;214.00;11.73;;;3.20;99.90;;;;;;6266578;23;20179;-92
2022/02/06 14:31:25;;;;;;;124.67;10.13;;;3.20;99.90;;;;;;6209010;23;20181;-93
2022/02/06 14:34:15;;;;;;;117.43;12.00;;;3.20;99.90;;;;;;6271925;22;20163;-91
2022/02/06 14:37:12;;;;;;;111.87;9.97;;;3.20;99.90;;;;;;6271710;22;20172;-89
2022/02/06 14:40:07;;;;;;;70.37;7.50;;;3.20;99.90;;;;;;6267001;23;20232;-93
2022/02/06 14:42:38;;;;;;;99.93;8.30;;;3.30;99.90;;;;;;6242949;23;20174;-93
2022/02/06 14:45:13;;;;;;;85.47;6.80;;;3.30;99.90;;;;;;6265914;23;20179;-93
2022/02/06 14:47:44;;;;;;;35.90;4.90;;;3.20;99.90;;;;;;6253287;23;20641;-94
2022/02/06 14:50:18;;;;;;;50.53;5.80;;;3.10;99.90;;;;;;6255085;23;20201;-94
2022/02/06 14:52:48;;;;;;;31.27;4.60;;;3.00;99.90;;;;;;6252676;23;20622;-94
2022/02/06 14:55:21;;;;;;;58.37;5.77;;;2.90;99.90;;;;;;6255322;23;20171;-94
2022/02/06 14:57:52;;;;;;;58.50;6.33;;;2.80;99.90;;;;;;6251287;23;20190;-94
2022/02/06 15:00:25;;;;;;;59.30;5.70;;;2.80;99.90;;;;;;6255368;23;20192;-94
2022/02/06 15:02:55;;;;;;;34.87;6.03;;;2.70;99.90;;;;;;6251650;23;20172;-94
2022/02/06 15:05:28;;;;;;;10.63;3.33;;;2.60;99.90;;;;;;6253995;22;20172;-93
2022/02/06 15:07:58;;;;;;;4.13;3.20;;;2.60;99.90;;;;;;6251373;23;20234;-92
2022/02/06 15:10:31;;;;;;;5.43;2.73;;;2.50;99.90;;;;;;6250950;23;20192;-93
2022/02/06 15:13:02;;;;;;;3.70;2.70;;;2.40;99.90;;;;;;6250495;23;20180;-92
2022/02/06 15:15:39;;;;;;;3.33;2.83;;;2.40;99.90;;;;;;6249970;23;20178;-93
2022/02/06 15:18:23;;;;;;;3.20;2.50;;;2.40;99.90;;;;;;6249685;23;20202;-93
2022/02/06 15:20:55;;;;;;;3.63;3.00;;;2.40;99.90;;;;;;6250614;23;20178;-93
2022/02/06 15:23:28;;;;;;;2.50;2.10;;;2.30;99.90;;;;;;6252634;23;20215;-93
2022/02/06 15:26:00;;;;;;;2.50;2.27;;;2.20;99.90;;;;;;6226560;23;20206;-94
2022/02/06 15:28:32;;;;;;;2.93;1.97;;;2.20;99.90;;;;;;6251660;23;20501;-92
2022/02/06 15:31:06;;;;;;;2.43;2.20;;;2.10;99.90;;;;;;6252141;23;20606;-93
2022/02/06 15:33:40;;;;;;;3.40;2.43;;;2.10;99.90;;;;;;6252478;23;20167;-93
2022/02/06 15:36:11;;;;;;;1.67;1.57;;;2.00;99.90;;;;;;6252260;23;20239;-93
2022/02/06 15:38:44;;;;;;;2.67;2.20;;;2.00;99.90;;;;;;6256298;23;20254;-92
2022/02/06 15:41:18;;;;;;;2.87;2.57;;;2.00;99.90;;;;;;6252191;23;20231;-94
2022/02/06 15:43:49;;;;;;;3.93;2.37;;;2.00;99.90;;;;;;6253412;23;20222;-94
2022/02/06 15:46:25;;;;;;;3.60;2.40;;;2.00;99.90;;;;;;6254546;23;20202;-94
2022/02/06 15:48:56;;;;;;;2.40;2.17;;;2.00;99.90;;;;;;6250737;23;20191;-94